createdAt,value
2018-06-09T00:02:19.132Z,13.73
2018-06-09T00:04:48.068Z,13.47
2018-06-09T00:07:16.836Z,12.87
2018-06-09T00:09:45.553Z,13.43
2018-06-09T00:12:14.210Z,14.70
2018-06-09T00:14:42.878Z,13.57
2018-06-09T00:17:11.526Z,15.13
2018-06-09T00:19:40.195Z,15.20
2018-06-09T00:22:08.827Z,14.40
2018-06-09T00:24:37.515Z,14.83
2018-06-09T00:27:06.234Z,14.43
2018-06-09T00:29:34.886Z,14.60
2018-06-09T00:32:03.830Z,14.70
2018-06-09T00:34:32.642Z,14.70
2018-06-09T00:37:01.494Z,14.63
2018-06-09T00:39:30.310Z,16.10
2018-06-09T00:41:59.163Z,15.33
2018-06-09T00:44:28.192Z,15.13
2018-06-09T00:46:57.016Z,14.83
2018-06-09T00:49:25.771Z,15.57
2018-06-09T00:51:54.409Z,14.33
2018-06-09T00:54:23.087Z,15.10
2018-06-09T00:56:51.722Z,14.60
2018-06-09T00:59:20.342Z,14.80
2018-06-09T01:01:49.035Z,14.63
2018-06-09T01:04:17.765Z,14.60
2018-06-09T01:06:46.605Z,15.40
2018-06-09T01:09:15.336Z,14.00
2018-06-09T01:11:44.000Z,15.60
2018-06-09T01:14:12.644Z,15.13
2018-06-09T01:16:41.347Z,14.60
2018-06-09T01:19:10.088Z,15.30
2018-06-09T01:21:38.754Z,15.70
2018-06-09T01:24:07.471Z,16.50
2018-06-09T01:26:36.155Z,16.00
2018-06-09T01:29:04.848Z,17.10
2018-06-09T01:31:33.525Z,15.77
2018-06-09T01:34:02.279Z,18.43
2018-06-09T01:36:31.077Z,18.77
2018-06-09T01:38:59.993Z,15.50
2018-06-09T01:41:28.870Z,16.83
2018-06-09T01:43:57.786Z,15.70
2018-06-09T01:46:26.591Z,16.50
2018-06-09T01:48:55.318Z,17.17
2018-06-09T01:51:23.970Z,16.13
2018-06-09T01:53:52.661Z,17.43
2018-06-09T01:56:21.295Z,18.10
2018-06-09T01:58:49.924Z,16.80
2018-06-09T02:01:18.629Z,17.30
2018-06-09T02:03:47.406Z,17.27
2018-06-09T02:06:16.326Z,19.67
2018-06-09T02:08:45.011Z,19.80
2018-06-09T02:11:13.705Z,17.83
2018-06-09T02:13:42.339Z,17.90
2018-06-09T02:16:10.984Z,16.90
2018-06-09T02:18:39.650Z,16.83
2018-06-09T02:21:08.322Z,16.90
2018-06-09T02:23:37.037Z,19.10
2018-06-09T02:26:05.702Z,17.10
2018-06-09T02:28:34.412Z,17.87
2018-06-09T02:31:03.106Z,18.80
2018-06-09T02:33:31.892Z,18.60
2018-06-09T02:36:00.699Z,16.40
2018-06-09T02:38:29.584Z,18.37
2018-06-09T02:40:58.349Z,21.20
2018-06-09T02:43:27.162Z,19.40
2018-06-09T02:45:56.506Z,19.53
2018-06-09T02:48:25.213Z,18.30
2018-06-09T02:50:53.916Z,16.90
2018-06-09T02:53:22.555Z,20.63
2018-06-09T02:55:51.241Z,19.80
2018-06-09T02:58:19.948Z,20.63
2018-06-09T03:00:48.305Z,18.13
2018-06-09T03:03:17.033Z,17.43
2018-06-09T03:05:45.720Z,17.37
2018-06-09T03:08:14.415Z,19.43
2018-06-09T03:10:43.071Z,20.30
2018-06-09T03:13:11.723Z,18.17
2018-06-09T03:15:40.836Z,19.80
2018-06-09T03:18:09.485Z,20.60
2018-06-09T03:20:38.137Z,21.63
2018-06-09T03:23:06.808Z,19.20
2018-06-09T03:25:35.459Z,21.07
2018-06-09T03:28:04.198Z,20.90
2018-06-09T03:30:32.952Z,20.53
2018-06-09T03:33:01.763Z,16.90
2018-06-09T03:35:30.578Z,20.57
2018-06-09T03:37:59.394Z,21.03
2018-06-09T03:40:28.264Z,20.77
2018-06-09T03:42:57.703Z,20.33
2018-06-09T03:45:26.514Z,20.80
2018-06-09T03:47:55.240Z,20.23
2018-06-09T03:50:23.993Z,19.43
2018-06-09T03:52:52.678Z,19.53
2018-06-09T03:55:20.974Z,18.20
2018-06-09T03:57:49.647Z,21.43
2018-06-09T04:00:18.427Z,20.87
2018-06-09T04:02:47.162Z,17.87
2018-06-09T04:05:15.966Z,21.00
2018-06-09T04:07:44.788Z,19.20
2018-06-09T04:10:13.457Z,18.30
2018-06-09T04:12:42.157Z,19.37
2018-06-09T04:15:10.811Z,19.80
2018-06-09T04:17:39.491Z,18.03
2018-06-09T04:20:08.107Z,16.37
2018-06-09T04:22:36.796Z,17.07
2018-06-09T04:25:05.483Z,18.40
2018-06-09T04:27:34.135Z,19.37
2018-06-09T04:30:02.855Z,18.40
2018-06-09T04:32:31.656Z,16.93
2018-06-09T04:35:00.515Z,15.20
2018-06-09T04:37:29.327Z,16.47
2018-06-09T04:39:58.243Z,17.90
2018-06-09T04:42:26.945Z,14.80
2018-06-09T04:44:55.668Z,17.27
2018-06-09T04:47:24.370Z,17.80
2018-06-09T04:49:53.141Z,18.07
2018-06-09T04:52:21.771Z,16.90
2018-06-09T04:54:50.479Z,16.20
2018-06-09T04:57:19.217Z,16.30
2018-06-09T04:59:47.958Z,18.37
2018-06-09T05:02:16.778Z,16.63
2018-06-09T05:04:45.542Z,15.57
2018-06-09T05:07:14.390Z,15.07
2018-06-09T05:09:43.055Z,16.70
2018-06-09T05:12:11.763Z,16.57
2018-06-09T05:14:40.678Z,15.37
2018-06-09T05:17:09.363Z,16.30
2018-06-09T05:19:38.007Z,17.40
2018-06-09T05:22:08.027Z,16.63
2018-06-09T05:24:36.895Z,16.80
2018-06-09T05:27:05.871Z,15.87
2018-06-09T05:29:34.594Z,16.30
2018-06-09T05:32:03.378Z,14.30
2018-06-09T05:34:32.241Z,15.37
2018-06-09T05:37:01.998Z,15.33
2018-06-09T05:39:30.979Z,15.70
2018-06-09T05:41:59.758Z,17.43
2018-06-09T05:44:28.753Z,15.67
2018-06-09T05:46:58.276Z,16.40
2018-06-09T05:49:27.226Z,16.60
2018-06-09T05:51:56.001Z,15.50
2018-06-09T05:54:24.767Z,15.40
2018-06-09T05:56:53.591Z,15.10
2018-06-09T05:59:22.213Z,13.67
2018-06-09T06:01:50.899Z,15.90
2018-06-09T06:04:19.637Z,15.57
2018-06-09T06:06:48.379Z,14.63
2018-06-09T06:09:17.214Z,15.67
2018-06-09T06:11:46.503Z,15.70
2018-06-09T06:14:15.333Z,15.67
2018-06-09T06:16:44.071Z,14.37
2018-06-09T06:19:12.748Z,16.17
2018-06-09T06:21:41.419Z,14.40
2018-06-09T06:24:10.149Z,16.13
2018-06-09T06:26:38.799Z,15.60
2018-06-09T06:29:07.518Z,14.47
2018-06-09T06:31:36.200Z,15.10
2018-06-09T06:34:04.985Z,15.43
2018-06-09T06:36:33.402Z,15.20
2018-06-09T06:39:02.173Z,13.80
2018-06-09T06:41:32.287Z,14.70
2018-06-09T06:44:01.348Z,13.50
2018-06-09T06:46:30.814Z,14.97
2018-06-09T06:48:59.695Z,15.20
2018-06-09T06:51:29.508Z,13.70
2018-06-09T06:53:58.597Z,14.37
2018-06-09T06:56:27.800Z,14.97
2018-06-09T06:58:56.753Z,13.03
2018-06-09T07:01:25.427Z,16.70
2018-06-09T07:03:54.119Z,13.90
2018-06-09T07:06:22.802Z,14.83
2018-06-09T07:08:52.126Z,13.90
2018-06-09T07:11:20.864Z,14.83
2018-06-09T07:13:49.625Z,15.30
2018-06-09T07:16:18.411Z,14.80
2018-06-09T07:18:47.333Z,14.90
2018-06-09T07:21:16.220Z,14.70
2018-06-09T07:23:44.979Z,14.70
2018-06-09T07:26:13.688Z,16.53
2018-06-09T07:28:42.358Z,14.30
2018-06-09T07:31:11.004Z,15.50
2018-06-09T07:33:39.318Z,15.00
2018-06-09T07:36:07.950Z,14.30
2018-06-09T07:38:36.723Z,13.43
2018-06-09T07:41:05.554Z,14.77
2018-06-09T07:43:34.262Z,14.03
2018-06-09T07:46:03.065Z,14.07
2018-06-09T07:48:31.754Z,13.93
2018-06-09T07:51:00.623Z,13.50
2018-06-09T07:53:29.620Z,14.93
2018-06-09T07:55:58.726Z,13.90
2018-06-09T07:58:28.020Z,12.70
2018-06-09T08:00:56.705Z,13.50
2018-06-09T08:03:25.385Z,13.57
2018-06-09T08:05:54.172Z,15.17
2018-06-09T08:08:23.298Z,14.57
2018-06-09T08:10:52.097Z,13.27
2018-06-09T08:13:20.781Z,13.53
2018-06-09T08:15:49.639Z,14.10
2018-06-09T08:18:18.419Z,14.03
2018-06-09T08:20:47.149Z,14.40
2018-06-09T08:23:15.916Z,13.40
2018-06-09T08:25:44.907Z,13.80
2018-06-09T08:28:13.695Z,13.23
2018-06-09T08:30:42.382Z,12.60
2018-06-09T08:33:11.071Z,15.03
2018-06-09T08:35:39.764Z,12.13
2018-06-09T08:38:08.670Z,13.57
2018-06-09T08:40:37.391Z,12.83
2018-06-09T08:43:06.095Z,13.60
2018-06-09T08:45:35.041Z,13.73
2018-06-09T08:48:05.232Z,11.93
2018-06-09T08:50:33.940Z,12.90
2018-06-09T08:53:02.853Z,12.07
2018-06-09T08:55:31.577Z,14.03
2018-06-09T08:58:00.698Z,13.53
2018-06-09T09:00:29.581Z,13.70
2018-06-09T09:02:58.591Z,12.37
2018-06-09T09:05:27.448Z,13.53
2018-06-09T09:07:56.314Z,12.80
2018-06-09T09:10:24.980Z,12.67
2018-06-09T09:12:53.614Z,14.10
2018-06-09T09:15:22.346Z,13.87
2018-06-09T09:17:51.073Z,12.30
2018-06-09T09:20:19.823Z,14.10
2018-06-09T09:22:48.700Z,10.67
2018-06-09T09:25:17.458Z,11.63
2018-06-09T09:27:46.139Z,11.87
2018-06-09T09:30:14.895Z,10.80
2018-06-09T09:32:43.561Z,12.97
2018-06-09T09:35:12.213Z,12.93
2018-06-09T09:37:40.850Z,12.67
2018-06-09T09:40:09.538Z,11.10
2018-06-09T09:42:38.213Z,11.23
2018-06-09T09:45:07.010Z,13.80
2018-06-09T09:47:35.370Z,12.17
2018-06-09T09:50:04.154Z,12.83
2018-06-09T09:52:32.848Z,14.37
2018-06-09T09:55:01.674Z,14.33
2018-06-09T09:57:30.730Z,14.17
2018-06-09T09:59:59.549Z,13.03
2018-06-09T10:02:28.361Z,11.30
2018-06-09T10:04:57.149Z,12.97
2018-06-09T10:07:26.427Z,13.47
2018-06-09T10:09:55.150Z,12.67
2018-06-09T10:12:23.852Z,12.77
2018-06-09T10:14:52.505Z,11.87
2018-06-09T10:17:21.135Z,11.10
2018-06-09T10:19:49.828Z,12.97
2018-06-09T10:22:18.498Z,11.90
2018-06-09T10:24:47.190Z,11.63
2018-06-09T10:27:15.943Z,12.63
2018-06-09T10:29:44.562Z,12.63
2018-06-09T10:32:13.194Z,13.00
2018-06-09T10:34:41.870Z,11.80
2018-06-09T10:37:10.686Z,13.37
2018-06-09T10:39:39.322Z,12.27
2018-06-09T10:42:07.981Z,10.90
2018-06-09T10:44:36.621Z,10.00
2018-06-09T10:47:05.291Z,10.27
2018-06-09T10:49:34.088Z,11.27
2018-06-09T10:52:02.834Z,10.53
2018-06-09T10:54:31.607Z,11.90
2018-06-09T10:57:00.544Z,11.03
2018-06-09T10:59:29.433Z,10.67
2018-06-09T11:01:58.751Z,10.73
2018-06-09T11:04:27.488Z,10.80
2018-06-09T11:06:56.222Z,9.63
2018-06-09T11:09:24.914Z,10.00
2018-06-09T11:11:53.578Z,10.60
2018-06-09T11:14:22.585Z,10.90
2018-06-09T11:16:51.363Z,10.53
2018-06-09T11:19:20.032Z,10.73
2018-06-09T11:21:48.966Z,10.13
2018-06-09T11:24:17.829Z,9.90
2018-06-09T11:26:46.561Z,11.00
2018-06-09T11:29:15.470Z,9.83
2018-06-09T11:31:44.108Z,10.37
2018-06-09T11:34:12.790Z,10.37
2018-06-09T11:36:41.478Z,10.27
2018-06-09T11:39:10.098Z,10.77
2018-06-09T11:41:38.746Z,10.90
2018-06-09T11:44:07.615Z,10.40
2018-06-09T11:46:36.303Z,10.50
2018-06-09T11:49:04.971Z,9.80
2018-06-09T11:51:33.746Z,10.77
2018-06-09T11:54:02.511Z,9.50
2018-06-09T11:56:31.292Z,10.90
2018-06-09T11:59:00.181Z,11.43
2018-06-09T12:01:28.999Z,9.50
2018-06-09T12:03:58.374Z,11.07
2018-06-09T12:06:27.094Z,10.63
2018-06-09T12:08:55.523Z,9.80
2018-06-09T12:11:24.271Z,10.70
2018-06-09T12:13:52.933Z,10.97
2018-06-09T12:16:21.567Z,12.03
2018-06-09T12:18:50.490Z,11.03
2018-06-09T12:21:19.166Z,10.97
2018-06-09T12:23:47.930Z,10.47
2018-06-09T12:26:16.783Z,11.10
2018-06-09T12:28:45.476Z,11.70
2018-06-09T12:31:14.218Z,10.90
2018-06-09T12:33:42.898Z,11.10
2018-06-09T12:36:11.792Z,9.97
2018-06-09T12:38:40.464Z,9.87
2018-06-09T12:41:09.146Z,9.30
2018-06-09T12:43:37.816Z,9.50
2018-06-09T12:46:06.479Z,9.80
2018-06-09T12:48:35.760Z,9.77
2018-06-09T12:51:04.472Z,9.57
2018-06-09T12:53:33.598Z,10.20
2018-06-09T12:56:02.495Z,9.53
2018-06-09T12:58:31.332Z,10.30
2018-06-09T13:01:00.283Z,9.77
2018-06-09T13:03:29.320Z,10.10
2018-06-09T13:05:58.383Z,10.27
2018-06-09T13:08:27.212Z,9.27
2018-06-09T13:10:55.950Z,10.90
2018-06-09T13:13:24.585Z,11.03
2018-06-09T13:15:53.275Z,9.80
2018-06-09T13:18:21.960Z,10.13
2018-06-09T13:20:50.632Z,10.40
2018-06-09T13:23:19.298Z,9.97
2018-06-09T13:25:48.137Z,11.27
2018-06-09T13:28:16.949Z,11.07
2018-06-09T13:30:45.722Z,10.50
2018-06-09T13:33:14.463Z,10.97
2018-06-09T13:35:43.492Z,10.10
2018-06-09T13:38:13.111Z,11.00
2018-06-09T13:40:41.851Z,9.77
2018-06-09T13:43:10.161Z,11.00
2018-06-09T13:45:38.964Z,11.10
2018-06-09T13:48:07.603Z,11.17
2018-06-09T13:50:36.250Z,11.33
2018-06-09T13:53:04.527Z,10.60
2018-06-09T13:55:33.340Z,10.30
2018-06-09T13:58:02.681Z,10.50
2018-06-09T14:00:31.500Z,10.53
2018-06-09T14:03:00.296Z,8.70
2018-06-09T14:05:29.327Z,10.10
2018-06-09T14:07:58.357Z,10.90
2018-06-09T14:10:27.181Z,10.90
2018-06-09T14:12:56.877Z,9.97
2018-06-09T14:15:25.642Z,9.50
2018-06-09T14:17:54.306Z,11.53
2018-06-09T14:20:23.039Z,9.53
2018-06-09T14:22:51.678Z,10.70
2018-06-09T14:25:20.280Z,10.30
2018-06-09T14:27:49.140Z,10.90
2018-06-09T14:30:17.837Z,10.90
2018-06-09T14:32:46.676Z,10.63
2018-06-09T14:35:15.424Z,10.57
2018-06-09T14:37:44.170Z,9.83
2018-06-09T14:40:12.831Z,10.33
2018-06-09T14:42:41.485Z,11.57
2018-06-09T14:45:10.335Z,10.27
2018-06-09T14:47:39.133Z,9.83
2018-06-09T14:50:08.076Z,11.40
2018-06-09T14:52:37.002Z,10.30
2018-06-09T14:55:05.720Z,10.93
2018-06-09T14:57:34.370Z,10.20
2018-06-09T15:00:03.154Z,10.37
2018-06-09T15:02:31.905Z,10.97
2018-06-09T15:05:00.662Z,11.67
2018-06-09T15:07:29.487Z,12.80
2018-06-09T15:10:00.373Z,12.20
2018-06-09T15:12:29.196Z,10.93
2018-06-09T15:14:58.108Z,11.50
2018-06-09T15:17:27.982Z,10.97
2018-06-09T15:19:56.926Z,10.50
2018-06-09T15:22:25.283Z,10.73
2018-06-09T15:24:54.056Z,12.37
2018-06-09T15:27:22.689Z,11.90
2018-06-09T15:29:51.686Z,12.17
2018-06-09T15:32:20.783Z,11.70
2018-06-09T15:34:49.635Z,10.60
2018-06-09T15:37:18.394Z,14.50
2018-06-09T15:39:47.079Z,10.30
2018-06-09T15:42:16.161Z,12.20
2018-06-09T15:44:44.883Z,10.20
2018-06-09T15:47:13.664Z,10.43
2018-06-09T15:49:42.461Z,10.30
2018-06-09T15:52:11.144Z,10.23
2018-06-09T15:54:39.785Z,10.60
2018-06-09T15:57:10.488Z,9.90
2018-06-09T15:59:39.426Z,9.70
2018-06-09T16:02:08.133Z,8.97
2018-06-09T16:04:36.913Z,9.33
2018-06-09T16:07:05.624Z,11.80
2018-06-09T16:09:34.289Z,9.40
2018-06-09T16:12:03.880Z,10.73
2018-06-09T16:14:33.231Z,17.93
2018-06-09T16:17:03.983Z,10.27
2018-06-09T16:19:32.742Z,10.77
2018-06-09T16:22:01.509Z,10.50
2018-06-09T16:24:30.604Z,9.57
2018-06-09T16:26:59.564Z,10.00
2018-06-09T16:29:28.562Z,10.50
2018-06-09T16:31:57.308Z,10.87
2018-06-09T16:34:26.910Z,11.50
2018-06-09T16:36:55.744Z,11.37
2018-06-09T16:39:24.438Z,9.43
2018-06-09T16:41:53.096Z,10.10
2018-06-09T16:44:22.402Z,11.47
2018-06-09T16:46:51.173Z,13.80
2018-06-09T16:49:19.982Z,11.43
2018-06-09T16:51:48.785Z,9.37
2018-06-09T16:54:17.749Z,9.23
2018-06-09T16:56:46.551Z,9.13
2018-06-09T16:59:15.317Z,8.57
2018-06-09T17:01:44.162Z,8.90
2018-06-09T17:04:12.787Z,9.53
2018-06-09T17:06:41.568Z,8.43
2018-06-09T17:09:10.548Z,8.80
2018-06-09T17:11:39.447Z,7.77
2018-06-09T17:14:08.146Z,7.77
2018-06-09T17:16:36.886Z,10.00
2018-06-09T17:19:06.512Z,8.90
2018-06-09T17:21:35.142Z,7.47
2018-06-09T17:24:03.987Z,10.17
2018-06-09T17:26:32.863Z,9.27
2018-06-09T17:29:01.592Z,8.40
2018-06-09T17:31:30.360Z,7.07
2018-06-09T17:33:59.336Z,8.00
2018-06-09T17:36:28.491Z,7.70
2018-06-09T17:38:57.269Z,8.67
2018-06-09T17:41:26.751Z,10.37
2018-06-09T17:43:56.220Z,11.60
2018-06-09T17:46:25.230Z,8.60
2018-06-09T17:48:53.922Z,11.67
2018-06-09T17:51:22.608Z,8.50
2018-06-09T17:53:51.273Z,10.43
2018-06-09T17:56:19.940Z,10.07
2018-06-09T17:58:49.153Z,8.00
2018-06-09T18:01:17.943Z,7.50
2018-06-09T18:03:46.766Z,10.20
2018-06-09T18:06:15.420Z,9.30
2018-06-09T18:08:44.476Z,8.87
2018-06-09T18:11:13.145Z,9.77
2018-06-09T18:13:42.174Z,9.40
2018-06-09T18:16:11.566Z,8.30
2018-06-09T18:18:40.242Z,8.90
2018-06-09T18:21:09.035Z,10.33
2018-06-09T18:23:37.735Z,7.93
2018-06-09T18:26:06.534Z,9.20
2018-06-09T18:28:35.224Z,12.67
2018-06-09T18:31:04.406Z,12.43
2018-06-09T18:33:33.582Z,7.77
2018-06-09T18:36:03.561Z,9.33
2018-06-09T18:38:32.342Z,9.53
2018-06-09T18:41:01.352Z,9.57
2018-06-09T18:43:30.552Z,10.23
2018-06-09T18:46:00.073Z,8.57
2018-06-09T18:48:29.076Z,8.40
2018-06-09T18:50:58.413Z,7.70
2018-06-09T18:53:27.228Z,12.07
2018-06-09T18:55:57.070Z,7.77
2018-06-09T18:58:26.384Z,9.37
2018-06-09T19:00:55.201Z,13.10
2018-06-09T19:03:23.836Z,11.43
2018-06-09T19:05:52.506Z,15.90
2018-06-09T19:08:21.160Z,12.03
2018-06-09T19:10:49.768Z,10.50
2018-06-09T19:13:19.333Z,12.60
2018-06-09T19:15:48.066Z,11.23
2018-06-09T19:18:16.805Z,9.10
2018-06-09T19:20:45.478Z,14.03
2018-06-09T19:23:14.139Z,11.50
2018-06-09T19:25:42.928Z,10.03
2018-06-09T19:28:11.686Z,8.50
2018-06-09T19:30:40.371Z,8.67
2018-06-09T19:33:09.187Z,9.47
2018-06-09T19:35:38.315Z,9.60
2018-06-09T19:38:07.005Z,14.50
2018-06-09T19:40:35.701Z,9.33
2018-06-09T19:43:04.358Z,9.63
2018-06-09T19:45:33.112Z,10.43
2018-06-09T19:48:01.832Z,9.07
2018-06-09T19:50:30.542Z,11.30
2018-06-09T19:52:59.366Z,11.10
2018-06-09T19:55:28.134Z,13.60
2018-06-09T19:57:57.136Z,12.90
2018-06-09T20:00:25.874Z,10.23
2018-06-09T20:02:56.908Z,9.97
2018-06-09T20:05:25.610Z,11.03
2018-06-09T20:07:54.297Z,9.20
2018-06-09T20:10:23.107Z,11.13
2018-06-09T20:12:51.907Z,10.13
2018-06-09T20:15:20.651Z,9.87
2018-06-09T20:17:49.361Z,10.43
2018-06-09T20:20:18.034Z,8.93
2018-06-09T20:22:46.758Z,10.97
2018-06-09T20:25:15.711Z,11.93
2018-06-09T20:27:44.388Z,11.50
2018-06-09T20:30:13.064Z,11.33
2018-06-09T20:32:42.116Z,9.87
2018-06-09T20:35:10.406Z,10.53
2018-06-09T20:37:39.058Z,12.53
2018-06-09T20:40:07.735Z,14.07
2018-06-09T20:42:36.837Z,9.70
2018-06-09T20:45:05.478Z,8.60
2018-06-09T20:47:34.312Z,12.17
2018-06-09T20:50:03.172Z,11.00
2018-06-09T20:52:32.052Z,10.67
2018-06-09T20:55:00.885Z,13.67
2018-06-09T20:57:29.673Z,10.03
2018-06-09T20:59:58.469Z,10.37
2018-06-09T21:02:27.152Z,11.80
2018-06-09T21:04:55.777Z,10.77
2018-06-09T21:07:25.446Z,10.93
2018-06-09T21:09:54.294Z,10.00
2018-06-09T21:12:22.977Z,10.17
2018-06-09T21:14:51.825Z,13.33
2018-06-09T21:17:20.721Z,12.20
2018-06-09T21:19:50.030Z,9.43
2018-06-09T21:22:18.965Z,8.70
2018-06-09T21:24:47.292Z,10.40
2018-06-09T21:27:21.406Z,9.50
2018-06-09T21:29:55.264Z,10.07
2018-06-09T21:32:29.378Z,8.40
2018-06-09T21:35:14.855Z,9.27
2018-06-09T21:37:47.255Z,9.03
2018-06-09T21:40:21.373Z,9.60
2018-06-09T21:42:55.987Z,10.50
2018-06-09T21:45:29.339Z,12.03
2018-06-09T21:47:58.189Z,10.20
2018-06-09T21:50:27.159Z,10.33
2018-06-09T21:52:56.031Z,10.70
2018-06-09T21:55:25.298Z,10.17
2018-06-09T21:57:53.952Z,9.37
2018-06-09T22:00:26.835Z,10.63
2018-06-09T22:02:56.143Z,9.67
2018-06-09T22:05:24.769Z,11.17
2018-06-09T22:07:53.851Z,10.07
2018-06-09T22:10:23.407Z,11.10
2018-06-09T22:12:53.855Z,9.53
2018-06-09T22:15:22.487Z,10.60
2018-06-09T22:17:51.702Z,9.60
2018-06-09T22:20:20.465Z,10.17
2018-06-09T22:22:49.269Z,9.67
2018-06-09T22:26:27.101Z,10.83
2018-06-09T22:28:55.853Z,12.13
2018-06-09T22:31:24.493Z,11.80
2018-06-09T22:33:53.274Z,11.60
2018-06-09T22:36:21.946Z,11.50
2018-06-09T22:38:50.734Z,10.80
2018-06-09T22:41:19.636Z,12.00
2018-06-09T22:43:48.475Z,10.70
2018-06-09T22:46:17.319Z,10.47
2018-06-09T22:48:45.971Z,12.40
2018-06-09T22:51:14.626Z,11.27
2018-06-09T22:53:43.469Z,10.77
2018-06-09T22:56:12.262Z,11.70
2018-06-09T22:58:41.032Z,11.23
2018-06-09T23:01:09.740Z,11.87
2018-06-09T23:03:38.392Z,15.33
2018-06-09T23:06:07.151Z,12.50
2018-06-09T23:08:35.847Z,12.83
2018-06-09T23:11:04.507Z,15.33
2018-06-09T23:13:33.158Z,12.70
2018-06-09T23:16:02.057Z,10.53
2018-06-09T23:18:30.756Z,13.47
2018-06-09T23:20:59.621Z,10.40
2018-06-09T23:23:28.334Z,10.83
2018-06-09T23:25:57.206Z,13.60
2018-06-09T23:28:25.822Z,17.80
2018-06-09T23:30:54.564Z,13.03
2018-06-09T23:33:23.207Z,14.20
2018-06-09T23:35:52.205Z,13.33
2018-06-09T23:38:20.881Z,12.50
2018-06-09T23:40:49.579Z,13.07
2018-06-09T23:43:18.299Z,15.87
2018-06-09T23:45:46.987Z,15.13
2018-06-09T23:48:15.738Z,17.97
2018-06-09T23:50:44.362Z,13.77
2018-06-09T23:53:13.001Z,13.87
2018-06-09T23:55:41.609Z,15.87
2018-06-09T23:58:10.237Z,16.30
